Time,TemperatureF,DewpointF,PressureIn,WindDirection,WindDirectionDegrees,WindSpeedMPH,WindSpeedGustMPH,Humidity,HourlyPrecipIn,Conditions,Clouds,dailyrainin,SolarRadiationWatts/m^2,SoftwareType,DateUTC
2013-02-18 00:08:00,39.6,37.0,30.01,ENE,61,0.0,1.0,91,0.00,,,0.26,0,weatherlink.com 1.10,2013-02-17 23:08:00,
2013-02-18 00:23:00,39.5,37.0,30.01,ENE,61,0.0,0.0,92,0.00,,,0.26,0,weatherlink.com 1.10,2013-02-17 23:23:00,
2013-02-18 00:38:00,38.8,37.0,30.01,ENE,61,0.0,0.0,92,0.00,,,0.26,0,weatherlink.com 1.10,2013-02-17 23:38:00,
2013-02-18 00:53:00,38.5,37.0,30.01,ENE,61,0.0,0.0,93,0.00,,,0.26,0,weatherlink.com 1.10,2013-02-17 23:53:00,
2013-02-18 01:08:00,38.6,37.0,30.01,ENE,61,0.0,0.0,93,0.00,,,0.26,0,weatherlink.com 1.10,2013-02-18 00:08:00,
2013-02-18 01:23:00,38.4,37.0,30.01,ENE,61,0.0,0.0,93,0.00,,,0.26,0,weatherlink.com 1.10,2013-02-18 00:23:00,
2013-02-18 01:38:00,37.9,36.0,30.01,ENE,61,0.0,0.0,92,0.00,,,0.26,0,weatherlink.com 1.10,2013-02-18 00:38:00,
2013-02-18 01:53:00,37.8,36.0,30.01,ENE,61,0.0,0.0,93,0.00,,,0.26,0,weatherlink.com 1.10,2013-02-18 00:53:00,
2013-02-18 02:08:00,38.0,37.0,30.01,ENE,61,0.0,0.0,94,0.00,,,0.00,0,weatherlink.com 1.10,2013-02-18 01:08:00,
2013-02-18 02:23:00,38.3,37.0,30.00,ENE,61,0.0,0.0,94,0.00,,,0.00,0,weatherlink.com 1.10,2013-02-18 01:23:00,
2013-02-18 02:38:00,38.6,37.0,30.00,ENE,61,0.0,1.0,94,0.00,,,0.00,0,weatherlink.com 1.10,2013-02-18 01:38:00,
2013-02-18 02:54:00,39.0,38.0,30.00,ENE,61,2.0,2.0,94,0.00,,,0.00,0,weatherlink.com 1.10,2013-02-18 01:54:00,
2013-02-18 03:09:00,38.9,37.0,29.99,ENE,61,0.0,2.0,93,0.00,,,0.00,0,weatherlink.com 1.10,2013-02-18 02:09:00,
2013-02-18 03:24:00,38.7,37.0,29.99,ENE,61,0.0,0.0,93,0.00,,,0.00,0,weatherlink.com 1.10,2013-02-18 02:24:00,
2013-02-18 03:39:00,38.7,37.0,29.99,ENE,61,0.0,1.0,94,0.00,,,0.00,0,weatherlink.com 1.10,2013-02-18 02:39:00,
2013-02-18 03:54:00,38.8,37.0,29.98,ENE,61,0.0,0.0,94,0.00,,,0.00,0,weatherlink.com 1.10,2013-02-18 02:54:00,
2013-02-18 04:09:00,38.7,37.0,29.98,ENE,61,0.0,0.0,94,0.00,,,0.00,0,weatherlink.com 1.10,2013-02-18 03:09:00,
2013-02-18 04:24:00,38.7,37.0,29.98,ENE,61,0.0,0.0,94,0.00,,,0.00,0,weatherlink.com 1.10,2013-02-18 03:24:00,
2013-02-18 04:39:00,38.9,37.0,29.98,ENE,61,0.0,0.0,94,0.00,,,0.00,0,weatherlink.com 1.10,2013-02-18 03:39:00,
2013-02-18 04:54:00,38.8,37.0,29.98,ENE,61,0.0,0.0,94,0.00,,,0.00,0,weatherlink.com 1.10,2013-02-18 03:54:00,
2013-02-18 05:09:00,38.7,37.0,29.98,ENE,61,0.0,0.0,94,0.00,,,0.00,0,weatherlink.com 1.10,2013-02-18 04:09:00,
2013-02-18 05:24:00,38.5,37.0,29.98,ENE,61,0.0,0.0,94,0.00,,,0.00,0,weatherlink.com 1.10,2013-02-18 04:24:00,
2013-02-18 05:39:00,38.1,37.0,29.98,ENE,61,0.0,0.0,94,0.00,,,0.00,0,weatherlink.com 1.10,2013-02-18 04:39:00,
2013-02-18 05:54:00,38.1,37.0,29.98,ENE,61,0.0,1.0,95,0.00,,,0.00,0,weatherlink.com 1.10,2013-02-18 04:54:00,
2013-02-18 06:09:00,38.2,37.0,29.98,ENE,61,0.0,0.0,94,0.00,,,0.00,0,weatherlink.com 1.10,2013-02-18 05:09:00,
2013-02-18 06:24:00,37.9,36.0,29.98,ENE,61,0.0,0.0,94,0.00,,,0.00,0,weatherlink.com 1.10,2013-02-18 05:24:00,
2013-02-18 06:39:00,38.0,37.0,29.98,ENE,61,0.0,0.0,95,0.00,,,0.00,0,weatherlink.com 1.10,2013-02-18 05:39:00,
2013-02-18 06:54:00,38.1,37.0,29.99,ENE,61,0.0,1.0,94,0.00,,,0.00,0,weatherlink.com 1.10,2013-02-18 05:54:00,
2013-02-18 07:09:00,37.7,36.0,29.99,ENE,61,0.0,0.0,94,0.00,,,0.00,0,weatherlink.com 1.10,2013-02-18 06:09:00,
2013-02-18 07:24:00,37.7,36.0,30.00,ENE,61,0.0,1.0,94,0.00,,,0.00,14,weatherlink.com 1.10,2013-02-18 06:24:00,
2013-02-18 07:39:00,37.9,36.0,30.00,ENE,61,0.0,0.0,94,0.00,,,0.00,30,weatherlink.com 1.10,2013-02-18 06:39:00,
2013-02-18 07:54:00,38.4,37.0,30.00,ENE,62,0.0,1.0,94,0.00,,,0.00,21,weatherlink.com 1.10,2013-02-18 06:54:00,
2013-02-18 08:09:00,38.9,37.0,30.01,ENE,62,0.0,1.0,94,0.00,,,0.00,26,weatherlink.com 1.10,2013-02-18 07:09:00,
2013-02-18 08:24:00,39.5,38.0,30.01,ENE,62,0.0,1.0,93,0.00,,,0.00,39,weatherlink.com 1.10,2013-02-18 07:24:00,
2013-02-18 08:39:00,40.1,38.0,30.01,ENE,62,0.0,0.0,92,0.00,,,0.00,46,weatherlink.com 1.10,2013-02-18 07:39:00,
2013-02-18 08:54:00,40.5,38.0,30.01,ENE,62,0.0,1.0,91,0.00,,,0.00,53,weatherlink.com 1.10,2013-02-18 07:54:00,
2013-02-18 09:09:00,40.9,39.0,30.01,ENE,62,0.0,0.0,91,0.00,,,0.00,47,weatherlink.com 1.10,2013-02-18 08:09:00,
2013-02-18 09:24:00,41.6,39.0,30.01,ENE,62,0.0,0.0,91,0.00,,,0.00,56,weatherlink.com 1.10,2013-02-18 08:24:00,
2013-02-18 09:39:00,42.2,39.0,30.01,ENE,62,0.0,1.0,89,0.00,,,0.00,74,weatherlink.com 1.10,2013-02-18 08:39:00,
2013-02-18 09:54:00,42.4,39.0,30.01,ENE,62,0.0,1.0,88,0.00,,,0.00,67,weatherlink.com 1.10,2013-02-18 08:54:00,
2013-02-18 10:09:00,42.8,39.0,30.01,ENE,62,0.0,1.0,87,0.00,,,0.00,74,weatherlink.com 1.10,2013-02-18 09:09:00,
2013-02-18 10:24:00,43.1,39.0,30.01,ENE,62,0.0,0.0,86,0.00,,,0.00,77,weatherlink.com 1.10,2013-02-18 09:24:00,
2013-02-18 10:39:00,43.6,40.0,30.01,ENE,62,0.0,1.0,86,0.00,,,0.00,125,weatherlink.com 1.10,2013-02-18 09:39:00,
2013-02-18 10:54:00,44.3,40.0,30.01,NE,37,0.0,1.0,84,0.00,,,0.00,156,weatherlink.com 1.10,2013-02-18 09:54:00,
2013-02-18 11:09:00,45.4,41.0,30.01,NNE,32,0.0,1.0,83,0.00,,,0.00,149,weatherlink.com 1.10,2013-02-18 10:09:00,
2013-02-18 11:24:00,46.7,41.0,30.01,NW,319,0.0,2.0,79,0.00,,,0.00,193,weatherlink.com 1.10,2013-02-18 10:24:00,
2013-02-18 11:40:00,48.2,42.0,30.01,NW,312,0.0,2.0,78,0.00,,,0.00,380,weatherlink.com 1.10,2013-02-18 10:40:00,
2013-02-18 11:55:00,49.9,42.0,30.01,NW,312,0.0,1.0,74,0.00,,,0.00,179,weatherlink.com 1.10,2013-02-18 10:55:00,
2013-02-18 12:10:00,50.7,42.0,30.00,NW,312,0.0,1.0,72,0.00,,,0.00,214,weatherlink.com 1.10,2013-02-18 11:10:00,
2013-02-18 12:25:00,51.8,43.0,29.99,NW,312,0.0,1.0,71,0.00,,,0.00,364,weatherlink.com 1.10,2013-02-18 11:25:00,
2013-02-18 12:40:00,52.1,42.0,29.99,NE,46,2.0,4.0,69,0.00,,,0.00,167,weatherlink.com 1.10,2013-02-18 11:40:00,
2013-02-18 12:55:00,52.1,43.0,29.99,NE,52,2.0,3.0,71,0.00,,,0.00,260,weatherlink.com 1.10,2013-02-18 11:55:00,
2013-02-18 13:10:00,52.5,42.0,29.98,NE,52,0.0,1.0,68,0.00,,,0.00,348,weatherlink.com 1.10,2013-02-18 12:10:00,
2013-02-18 13:25:00,53.2,42.0,29.98,NE,52,0.0,1.0,65,0.00,,,0.00,311,weatherlink.com 1.10,2013-02-18 12:25:00,
2013-02-18 13:40:00,53.0,43.0,29.98,NE,52,0.0,1.0,68,0.00,,,0.00,125,weatherlink.com 1.10,2013-02-18 12:40:00,
2013-02-18 13:55:00,53.8,43.0,29.97,NE,41,0.0,1.0,67,0.00,,,0.00,439,weatherlink.com 1.10,2013-02-18 12:55:00,
2013-02-18 14:10:00,54.6,43.0,29.97,NW,308,0.0,1.0,64,0.00,,,0.00,102,weatherlink.com 1.10,2013-02-18 13:10:00,
2013-02-18 14:25:00,53.5,42.0,29.96,NW,308,0.0,2.0,65,0.00,,,0.00,62,weatherlink.com 1.10,2013-02-18 13:25:00,
2013-02-18 14:40:00,53.1,42.0,29.96,NW,308,0.0,1.0,66,0.00,,,0.00,67,weatherlink.com 1.10,2013-02-18 13:40:00,
2013-02-18 14:55:00,52.9,40.0,29.96,NW,308,0.0,1.0,62,0.00,,,0.00,97,weatherlink.com 1.10,2013-02-18 13:55:00,
2013-02-18 15:10:00,52.8,41.0,29.96,NW,308,0.0,1.0,64,0.00,,,0.00,90,weatherlink.com 1.10,2013-02-18 14:10:00,
2013-02-18 15:25:00,53.1,42.0,29.96,NW,304,0.0,2.0,67,0.00,,,0.00,121,weatherlink.com 1.10,2013-02-18 14:25:00,
2013-02-18 15:40:00,51.6,41.0,29.96,NW,304,0.0,2.0,68,0.00,,,0.00,54,weatherlink.com 1.10,2013-02-18 14:40:00,
2013-02-18 15:55:00,50.7,42.0,29.96,NW,304,0.0,1.0,71,0.00,,,0.00,54,weatherlink.com 1.10,2013-02-18 14:55:00,
2013-02-18 16:10:00,50.7,42.0,29.96,NW,304,0.0,1.0,71,0.00,,,0.00,44,weatherlink.com 1.10,2013-02-18 15:10:00,
2013-02-18 16:25:00,50.8,41.0,29.96,NW,304,0.0,0.0,70,0.00,,,0.00,32,weatherlink.com 1.10,2013-02-18 15:25:00,
2013-02-18 16:40:00,50.7,41.0,29.96,NW,304,0.0,0.0,69,0.00,,,0.00,25,weatherlink.com 1.10,2013-02-18 15:40:00,
2013-02-18 16:55:00,50.4,39.0,29.96,NW,304,0.0,1.0,66,0.00,,,0.00,18,weatherlink.com 1.10,2013-02-18 15:55:00,
2013-02-18 17:10:00,49.9,38.0,29.96,NW,304,0.0,0.0,64,0.00,,,0.00,19,weatherlink.com 1.10,2013-02-18 16:10:00,
2013-02-18 17:25:00,49.6,39.0,29.96,NW,305,0.0,1.0,66,0.00,,,0.00,11,weatherlink.com 1.10,2013-02-18 16:25:00,
2013-02-18 17:40:00,49.4,40.0,29.96,NW,305,0.0,0.0,70,0.00,,,0.00,0,weatherlink.com 1.10,2013-02-18 16:40:00,
2013-02-18 17:55:00,49.1,40.0,29.97,NW,305,0.0,1.0,71,0.00,,,0.00,0,weatherlink.com 1.10,2013-02-18 16:55:00,
2013-02-18 18:10:00,48.8,40.0,29.98,NW,305,0.0,0.0,73,0.00,,,0.00,0,weatherlink.com 1.10,2013-02-18 17:10:00,
2013-02-18 18:25:00,48.3,41.0,29.98,NW,305,0.0,0.0,75,0.00,,,0.00,0,weatherlink.com 1.10,2013-02-18 17:25:00,
2013-02-18 18:40:00,47.9,41.0,29.98,NW,305,0.0,0.0,76,0.00,,,0.00,0,weatherlink.com 1.10,2013-02-18 17:40:00,
2013-02-18 18:55:00,47.7,40.0,29.98,NW,305,0.0,1.0,76,0.00,,,0.00,0,weatherlink.com 1.10,2013-02-18 17:55:00,
2013-02-18 19:10:00,47.5,41.0,29.99,NW,305,0.0,1.0,77,0.00,,,0.00,0,weatherlink.com 1.10,2013-02-18 18:10:00,
2013-02-18 19:25:00,47.6,40.0,29.99,NW,304,0.0,3.0,74,0.00,,,0.00,0,weatherlink.com 1.10,2013-02-18 18:25:00,
2013-02-18 19:40:00,47.4,39.0,29.99,NW,304,0.0,2.0,72,0.00,,,0.00,0,weatherlink.com 1.10,2013-02-18 18:40:00,
2013-02-18 19:55:00,46.9,38.0,30.00,WNW,303,0.0,2.0,72,0.00,,,0.00,0,weatherlink.com 1.10,2013-02-18 18:55:00,
2013-02-18 20:10:00,46.5,38.0,30.00,NW,304,0.0,2.0,73,0.00,,,0.00,0,weatherlink.com 1.10,2013-02-18 19:10:00,
2013-02-18 20:25:00,46.1,38.0,30.00,NW,304,0.0,2.0,74,0.00,,,0.00,0,weatherlink.com 1.10,2013-02-18 19:25:00,
2013-02-18 20:40:00,45.7,38.0,30.00,NW,304,0.0,0.0,74,0.00,,,0.00,0,weatherlink.com 1.10,2013-02-18 19:40:00,
2013-02-18 20:55:00,45.0,38.0,30.00,NW,304,0.0,1.0,76,0.00,,,0.00,0,weatherlink.com 1.10,2013-02-18 19:55:00,
2013-02-18 21:25:00,44.0,38.0,30.01,NW,304,0.0,0.0,78,0.00,,,0.00,0,weatherlink.com 1.10,2013-02-18 20:25:00,
2013-02-18 21:40:00,43.6,38.0,30.01,NW,304,0.0,0.0,79,0.00,,,0.00,0,weatherlink.com 1.10,2013-02-18 20:40:00,
2013-02-18 21:55:00,43.1,37.0,30.01,NW,304,0.0,0.0,80,0.00,,,0.00,0,weatherlink.com 1.10,2013-02-18 20:55:00,
2013-02-18 22:11:00,42.6,37.0,30.01,NW,304,0.0,0.0,81,0.00,,,0.00,0,weatherlink.com 1.10,2013-02-18 21:11:00,
2013-02-18 22:25:00,42.4,37.0,30.01,NW,304,0.0,0.0,82,0.00,,,0.00,0,weatherlink.com 1.10,2013-02-18 21:25:00,
2013-02-18 22:40:00,41.9,37.0,30.01,NW,304,0.0,0.0,81,0.00,,,0.00,0,weatherlink.com 1.10,2013-02-18 21:40:00,
2013-02-18 22:55:00,41.7,37.0,30.02,NW,304,0.0,0.0,82,0.00,,,0.00,0,weatherlink.com 1.10,2013-02-18 21:55:00,
2013-02-18 23:10:00,41.2,36.0,30.01,NW,304,0.0,0.0,82,0.00,,,0.00,0,weatherlink.com 1.10,2013-02-18 22:10:00,
2013-02-18 23:25:00,40.5,36.0,30.02,NW,304,0.0,0.0,84,0.00,,,0.00,0,weatherlink.com 1.10,2013-02-18 22:25:00,
2013-02-18 23:40:00,40.3,36.0,30.02,NW,304,0.0,0.0,84,0.00,,,0.00,0,weatherlink.com 1.10,2013-02-18 22:40:00,
2013-02-18 23:55:00,40.0,36.0,30.02,NW,304,0.0,0.0,84,0.00,,,0.00,0,weatherlink.com 1.10,2013-02-18 22:55:00,